createdAt,value
2023-02-06T00:00:58.076Z,102262.91
2023-02-06T00:04:00.201Z,102267.50
2023-02-06T00:07:02.378Z,102268.00
2023-02-06T00:10:05.002Z,102263.22
2023-02-06T00:13:07.097Z,102272.34
2023-02-06T00:16:20.133Z,102279.84
2023-02-06T00:19:22.343Z,102291.97
2023-02-06T00:22:24.571Z,102301.97
2023-02-06T00:25:26.736Z,102303.66
2023-02-06T00:28:28.881Z,102309.13
2023-02-06T00:31:32.669Z,102314.66
2023-02-06T00:34:34.835Z,102308.94
2023-02-06T00:37:39.270Z,102316.63
2023-02-06T00:40:41.430Z,102321.75
2023-02-06T00:43:43.703Z,102321.25
2023-02-06T00:46:45.992Z,102325.78
2023-02-06T00:49:48.251Z,102306.84
2023-02-06T00:52:53.280Z,102312.56
2023-02-06T00:55:55.457Z,102296.69
2023-02-06T00:58:57.713Z,102307.84
2023-02-06T01:01:59.895Z,102304.00
2023-02-06T01:05:02.485Z,102305.81
2023-02-06T01:08:04.908Z,102296.47
2023-02-06T01:11:17.115Z,102302.16
2023-02-06T01:14:19.260Z,102301.81
2023-02-06T01:17:21.371Z,102306.56
2023-02-06T01:20:23.899Z,102319.22
2023-02-06T01:23:26.104Z,102321.16
2023-02-06T01:26:28.397Z,102322.50
2023-02-06T01:29:31.774Z,102327.56
2023-02-06T01:32:38.086Z,102325.03
2023-02-06T01:35:40.205Z,102334.50
2023-02-06T01:38:43.348Z,102319.28
2023-02-06T01:41:46.507Z,102323.00
2023-02-06T01:44:48.620Z,102316.66
2023-02-06T01:47:53.950Z,102310.41
2023-02-06T01:50:56.956Z,102313.00
2023-02-06T01:54:01.519Z,102322.97
2023-02-06T01:57:06.811Z,102323.47
2023-02-06T02:00:10.490Z,102308.47
2023-02-06T02:03:15.564Z,102303.28
2023-02-06T02:06:21.662Z,102297.41
2023-02-06T02:09:23.912Z,102287.25
2023-02-06T02:12:26.636Z,102289.91
2023-02-06T02:15:57.987Z,102278.88
2023-02-06T02:19:28.117Z,102284.63
2023-02-06T02:22:36.576Z,102286.25
2023-02-06T02:26:18.152Z,102292.72
2023-02-06T02:29:35.534Z,102297.28
2023-02-06T02:32:59.700Z,102298.91
2023-02-06T02:36:26.778Z,102294.50
2023-02-06T02:39:41.604Z,102305.97
2023-02-06T02:42:53.854Z,102300.63
2023-02-06T02:46:18.082Z,102294.97
2023-02-06T02:49:23.594Z,102299.53
2023-02-06T02:52:25.866Z,102310.91
2023-02-06T02:55:28.026Z,102307.31
2023-02-06T02:58:34.404Z,102293.19
2023-02-06T03:01:49.880Z,102307.19
2023-02-06T03:04:56.303Z,102304.56
2023-02-06T03:08:46.954Z,102302.66
2023-02-06T03:12:01.584Z,102306.47
2023-02-06T03:15:25.717Z,102307.69
2023-02-06T03:18:41.233Z,102315.72
2023-02-06T03:21:44.851Z,102321.56
2023-02-06T03:24:47.518Z,102305.88
2023-02-06T03:27:50.820Z,102298.78
2023-02-06T03:30:55.890Z,102316.75
2023-02-06T03:34:20.255Z,102315.81
2023-02-06T03:37:23.404Z,102312.56
2023-02-06T03:40:26.829Z,102312.22
2023-02-06T03:43:32.292Z,102303.25
2023-02-06T03:46:35.623Z,102312.44
2023-02-06T03:49:39.534Z,102322.09
2023-02-06T03:52:49.877Z,102312.53
2023-02-06T03:55:54.746Z,102304.50
2023-02-06T03:59:00.025Z,102316.75
2023-02-06T04:02:03.861Z,102321.69
2023-02-06T04:05:06.929Z,102324.91
2023-02-06T04:08:09.885Z,102318.22
2023-02-06T04:11:12.108Z,102313.31
2023-02-06T04:14:14.301Z,102296.44
2023-02-06T04:17:31.370Z,102295.09
2023-02-06T04:20:40.978Z,102300.00
2023-02-06T04:23:43.237Z,102295.91
2023-02-06T04:26:45.458Z,102304.78
2023-02-06T04:29:47.720Z,102320.47
2023-02-06T04:32:50.046Z,102323.59
2023-02-06T04:35:52.291Z,102300.69
2023-02-06T04:38:54.431Z,102309.66
2023-02-06T04:41:56.733Z,102317.81
2023-02-06T04:44:58.999Z,102294.72
2023-02-06T04:48:01.192Z,102322.50
2023-02-06T04:51:03.705Z,102320.84
2023-02-06T04:54:06.243Z,102339.03
2023-02-06T04:57:08.422Z,102324.53
2023-02-06T05:00:11.222Z,102325.13
2023-02-06T05:03:13.502Z,102323.09
2023-02-06T05:06:16.612Z,102336.38
2023-02-06T05:09:18.751Z,102339.03
2023-02-06T05:12:20.949Z,102321.41
2023-02-06T05:15:23.120Z,102337.72
2023-02-06T05:18:25.792Z,102329.59
2023-02-06T05:21:28.631Z,102343.59
2023-02-06T05:24:30.997Z,102335.47
2023-02-06T05:27:33.281Z,102333.78
2023-02-06T05:30:35.621Z,102319.78
2023-02-06T05:33:39.899Z,102335.94
2023-02-06T05:36:46.845Z,102344.19
2023-02-06T05:39:53.183Z,102340.50
2023-02-06T05:43:02.266Z,102346.63
2023-02-06T05:46:05.719Z,102339.75
2023-02-06T05:49:07.964Z,102333.66
2023-02-06T05:55:28.172Z,102350.19
2023-02-06T05:58:30.498Z,102353.34
2023-02-06T06:01:32.899Z,102321.78
2023-02-06T06:04:35.156Z,102344.78
2023-02-06T06:07:37.421Z,102340.03
2023-02-06T06:10:39.985Z,102352.81
2023-02-06T06:13:42.227Z,102332.81
2023-02-06T06:16:44.480Z,102342.75
2023-02-06T06:19:46.754Z,102347.28
2023-02-06T06:22:48.963Z,102328.25
2023-02-06T06:25:51.128Z,102329.44
2023-02-06T06:28:53.353Z,102334.38
2023-02-06T06:31:55.669Z,102352.47
2023-02-06T06:34:57.834Z,102343.13
2023-02-06T06:38:00.100Z,102336.16
2023-02-06T06:41:02.429Z,102338.28
2023-02-06T06:44:04.771Z,102342.13
2023-02-06T06:47:06.976Z,102341.72
2023-02-06T06:50:09.512Z,102340.31
2023-02-06T06:53:11.703Z,102338.47
2023-02-06T06:56:14.753Z,102326.41
2023-02-06T06:59:17.018Z,102338.69
2023-02-06T07:02:29.077Z,102335.53
2023-02-06T07:05:34.643Z,102345.56
2023-02-06T07:08:42.171Z,102341.28
2023-02-06T07:11:44.503Z,102341.78
2023-02-06T07:14:47.735Z,102334.56
2023-02-06T07:17:49.955Z,102337.00
2023-02-06T07:20:52.140Z,102340.09
2023-02-06T07:23:54.539Z,102332.66
2023-02-06T07:26:57.763Z,102325.53
2023-02-06T07:30:00.022Z,102344.53
2023-02-06T07:33:05.017Z,102364.25
2023-02-06T07:36:11.303Z,102349.44
2023-02-06T07:39:13.469Z,102344.78
2023-02-06T07:42:15.855Z,102358.47
2023-02-06T07:45:27.166Z,102345.78
2023-02-06T07:48:30.065Z,102343.16
2023-02-06T07:51:32.472Z,102355.56
2023-02-06T07:54:36.655Z,102343.50
2023-02-06T07:57:38.938Z,102345.25
2023-02-06T08:00:43.706Z,102350.97
2023-02-06T08:03:49.748Z,102343.81
2023-02-06T08:06:51.944Z,102353.56
2023-02-06T08:09:54.341Z,102343.13
2023-02-06T08:12:59.849Z,102347.72
2023-02-06T08:16:13.010Z,102343.75
2023-02-06T08:19:15.183Z,102347.72
2023-02-06T08:22:17.420Z,102351.03
2023-02-06T08:25:19.637Z,102352.53
2023-02-06T08:28:21.864Z,102342.66
2023-02-06T08:31:31.069Z,102358.09
2023-02-06T08:34:33.414Z,102338.00
2023-02-06T08:37:35.554Z,102342.34
2023-02-06T08:40:37.711Z,102337.25
2023-02-06T08:43:39.930Z,102342.41
2023-02-06T08:46:44.080Z,102342.00
2023-02-06T08:49:46.766Z,102333.22
2023-02-06T08:52:49.009Z,102337.25
2023-02-06T08:55:58.228Z,102330.19
2023-02-06T08:59:02.183Z,102334.13
2023-02-06T09:02:06.053Z,102335.38
2023-02-06T09:05:08.766Z,102336.38
2023-02-06T09:08:11.226Z,102330.06
2023-02-06T09:11:18.461Z,102321.44
2023-02-06T09:14:21.000Z,102333.72
2023-02-06T09:17:23.131Z,102336.63
2023-02-06T09:20:29.563Z,102343.75
2023-02-06T09:23:31.997Z,102348.63
2023-02-06T09:26:44.714Z,102333.84
2023-02-06T09:29:52.497Z,102323.50
2023-02-06T09:32:54.852Z,102328.53
2023-02-06T09:36:11.885Z,102333.81
2023-02-06T09:39:14.029Z,102342.88
2023-02-06T09:42:31.825Z,102341.31
2023-02-06T09:45:34.551Z,102333.81
2023-02-06T09:48:40.395Z,102338.09
2023-02-06T09:52:30.607Z,102332.09
2023-02-06T09:55:45.304Z,102315.78
2023-02-06T09:58:53.834Z,102325.94
2023-02-06T10:02:40.117Z,102326.63
2023-02-06T10:06:19.890Z,102313.59
2023-02-06T10:09:38.162Z,102308.81
2023-02-06T10:13:01.418Z,102313.91
2023-02-06T10:16:13.641Z,102303.13
2023-02-06T10:19:25.320Z,102302.22
2023-02-06T10:22:39.154Z,102299.78
2023-02-06T10:26:03.980Z,102290.50
2023-02-06T10:29:16.915Z,102291.63
2023-02-06T10:32:29.054Z,102302.53
2023-02-06T10:36:12.980Z,102293.69
2023-02-06T10:39:30.464Z,102293.63
2023-02-06T10:42:47.045Z,102285.22
2023-02-06T10:45:52.385Z,102284.38
2023-02-06T10:49:14.320Z,102274.75
2023-02-06T10:52:28.829Z,102276.78
2023-02-06T10:56:00.109Z,102272.31
2023-02-06T10:59:06.858Z,102265.72
2023-02-06T11:02:29.126Z,102264.53
2023-02-06T11:05:34.359Z,102260.09
2023-02-06T11:08:43.893Z,102251.59
2023-02-06T11:11:53.603Z,102255.25
2023-02-06T11:14:57.142Z,102247.38
2023-02-06T11:18:04.777Z,102251.38
2023-02-06T11:21:16.478Z,102233.00
2023-02-06T11:24:26.698Z,102240.38
2023-02-06T11:27:30.821Z,102220.38
2023-02-06T11:30:37.507Z,102236.06
2023-02-06T11:33:54.637Z,102229.28
2023-02-06T11:37:27.354Z,102231.31
2023-02-06T11:40:29.954Z,102221.81
2023-02-06T11:43:35.320Z,102215.19
2023-02-06T11:46:43.068Z,102215.63
2023-02-06T11:49:46.389Z,102200.16
2023-02-06T11:52:49.226Z,102211.69
2023-02-06T11:56:07.108Z,102206.38
2023-02-06T11:59:23.259Z,102209.78
2023-02-06T12:02:34.813Z,102198.13
2023-02-06T12:05:40.272Z,102193.31
2023-02-06T12:08:50.730Z,102187.69
2023-02-06T12:12:08.049Z,102181.38
2023-02-06T12:15:39.920Z,102176.09
2023-02-06T12:18:42.261Z,102176.31
2023-02-06T12:21:54.442Z,102176.50
2023-02-06T12:24:57.404Z,102155.19
2023-02-06T12:28:18.960Z,102168.84
2023-02-06T12:31:27.152Z,102169.50
2023-02-06T12:34:53.992Z,102176.19
2023-02-06T12:38:07.189Z,102162.50
2023-02-06T12:41:35.448Z,102164.00
2023-02-06T12:44:54.919Z,102165.34
2023-02-06T12:48:22.987Z,102166.16
2023-02-06T12:51:33.042Z,102166.50
2023-02-06T12:54:47.067Z,102157.00
2023-02-06T12:57:49.744Z,102157.31
2023-02-06T13:01:17.415Z,102151.63
2023-02-06T13:04:32.393Z,102155.78
2023-02-06T13:07:48.961Z,102153.09
2023-02-06T13:11:02.088Z,102148.69
2023-02-06T13:14:22.288Z,102144.31
2023-02-06T13:17:26.584Z,102160.06
2023-02-06T13:20:29.027Z,102156.53
2023-02-06T13:23:31.157Z,102150.31
2023-02-06T13:27:04.124Z,102152.47
2023-02-06T13:30:31.543Z,102152.75
2023-02-06T13:33:43.142Z,102136.56
2023-02-06T13:36:50.266Z,102146.38
2023-02-06T13:40:22.512Z,102163.38
2023-02-06T13:43:27.483Z,102134.59
2023-02-06T13:46:57.572Z,102140.84
2023-02-06T13:50:29.039Z,102148.91
2023-02-06T13:54:02.202Z,102159.03
2023-02-06T13:57:19.455Z,102167.91
2023-02-06T14:00:28.861Z,102167.25
2023-02-06T14:03:34.051Z,102184.63
2023-02-06T14:06:56.721Z,102172.75
2023-02-06T14:10:05.290Z,102180.44
2023-02-06T14:13:45.302Z,102188.25
2023-02-06T14:16:57.617Z,102178.75
2023-02-06T14:20:18.426Z,102187.09
2023-02-06T14:24:30.514Z,102183.69
2023-02-06T14:27:59.878Z,102179.53
2023-02-06T14:31:07.954Z,102182.47
2023-02-06T14:34:39.008Z,102184.97
2023-02-06T14:38:05.855Z,102186.94
2023-02-06T14:41:08.258Z,102175.28
2023-02-06T14:44:13.679Z,102187.03
2023-02-06T14:47:24.817Z,102181.19
2023-02-06T14:50:35.513Z,102187.56
2023-02-06T14:53:39.885Z,102187.19
2023-02-06T14:56:42.935Z,102183.75
2023-02-06T15:00:04.474Z,102184.88
2023-02-06T15:03:16.921Z,102185.78
2023-02-06T15:06:40.518Z,102195.88
2023-02-06T15:09:46.528Z,102205.84
2023-02-06T15:12:53.250Z,102215.78
2023-02-06T15:15:57.023Z,102217.19
2023-02-06T15:19:13.225Z,102204.66
2023-02-06T15:22:29.875Z,102213.81
2023-02-06T15:25:43.926Z,102216.63
2023-02-06T15:28:46.345Z,102204.16
2023-02-06T15:31:50.105Z,102217.13
2023-02-06T15:34:52.424Z,102201.75
2023-02-06T15:37:54.938Z,102221.00
2023-02-06T15:41:00.600Z,102229.03
2023-02-06T15:44:10.121Z,102226.63
2023-02-06T15:47:14.823Z,102230.28
2023-02-06T15:50:28.496Z,102235.28
2023-02-06T15:53:41.435Z,102237.75
2023-02-06T15:56:48.421Z,102231.84
2023-02-06T15:59:50.713Z,102238.84
2023-02-06T16:03:05.219Z,102235.47
2023-02-06T16:06:14.974Z,102250.91
2023-02-06T16:09:21.528Z,102255.25
2023-02-06T16:12:23.778Z,102232.63
2023-02-06T16:15:35.005Z,102258.34
2023-02-06T16:18:38.948Z,102256.59
2023-02-06T16:21:43.474Z,102264.84
2023-02-06T16:24:46.052Z,102274.78
2023-02-06T16:27:51.238Z,102273.41
2023-02-06T16:31:04.802Z,102266.47
2023-02-06T16:34:21.352Z,102284.50
2023-02-06T16:37:26.014Z,102269.91
2023-02-06T16:40:28.275Z,102277.72
2023-02-06T16:43:30.994Z,102267.16
2023-02-06T16:46:33.465Z,102277.47
2023-02-06T16:49:35.749Z,102287.81
2023-02-06T16:52:41.528Z,102286.97
2023-02-06T16:55:43.934Z,102280.91
2023-02-06T16:58:46.588Z,102288.84
2023-02-06T17:01:48.974Z,102274.63
2023-02-06T17:04:51.245Z,102280.78
2023-02-06T17:07:54.028Z,102281.06
2023-02-06T17:10:56.169Z,102288.19
2023-02-06T17:13:58.488Z,102283.56
2023-02-06T17:17:02.107Z,102285.97
2023-02-06T17:20:05.030Z,102269.66
2023-02-06T17:23:07.701Z,102277.75
2023-02-06T17:26:15.337Z,102272.06
2023-02-06T17:29:17.581Z,102282.94
2023-02-06T17:32:22.940Z,102278.78
2023-02-06T17:35:25.417Z,102286.84
2023-02-06T17:38:27.602Z,102286.16
2023-02-06T17:41:31.304Z,102293.53
2023-02-06T17:44:33.450Z,102291.47
2023-02-06T17:47:35.596Z,102292.44
2023-02-06T17:50:40.698Z,102292.72
2023-02-06T17:53:42.881Z,102298.84
2023-02-06T17:56:45.053Z,102302.19
2023-02-06T17:59:47.232Z,102289.94
2023-02-06T18:02:53.954Z,102304.28
2023-02-06T18:06:00.482Z,102318.09
2023-02-06T18:09:02.858Z,102314.50
2023-02-06T18:12:05.120Z,102315.31
2023-02-06T18:15:08.460Z,102319.91
2023-02-06T18:18:10.604Z,102326.19
2023-02-06T18:21:12.865Z,102330.09
2023-02-06T18:24:15.120Z,102319.91
2023-02-06T18:27:18.697Z,102321.84
2023-02-06T18:30:21.101Z,102326.59
2023-02-06T18:33:23.513Z,102320.03
2023-02-06T18:36:26.432Z,102322.69
2023-02-06T18:39:28.757Z,102339.28
2023-02-06T18:42:49.482Z,102332.97
2023-02-06T18:45:51.648Z,102335.63
2023-02-06T18:48:54.925Z,102329.47
2023-02-06T18:51:57.151Z,102338.50
2023-02-06T18:54:59.343Z,102333.38
2023-02-06T18:58:02.658Z,102344.50
2023-02-06T19:01:12.770Z,102346.72
2023-02-06T19:04:15.007Z,102349.19
2023-02-06T19:07:17.291Z,102355.28
2023-02-06T19:10:20.698Z,102360.84
2023-02-06T19:13:22.844Z,102351.00
2023-02-06T19:16:26.468Z,102350.13
2023-02-06T19:19:28.653Z,102355.03
2023-02-06T19:22:37.005Z,102371.16
2023-02-06T19:25:40.832Z,102366.47
2023-02-06T19:28:43.546Z,102371.03
2023-02-06T19:31:45.762Z,102370.63
2023-02-06T19:34:47.994Z,102377.84
2023-02-06T19:37:51.414Z,102382.34
2023-02-06T19:40:53.742Z,102371.97
2023-02-06T19:43:57.219Z,102380.91
2023-02-06T19:47:00.137Z,102384.47
2023-02-06T19:50:02.370Z,102385.47
2023-02-06T19:53:05.167Z,102390.63
2023-02-06T19:56:07.648Z,102391.72
2023-02-06T19:59:18.196Z,102393.66
2023-02-06T20:02:20.539Z,102392.78
2023-02-06T20:05:26.186Z,102400.97
2023-02-06T20:08:28.363Z,102395.97
2023-02-06T20:11:31.937Z,102402.19
2023-02-06T20:14:34.075Z,102414.34
2023-02-06T20:17:36.185Z,102413.25
2023-02-06T20:20:38.623Z,102408.56
2023-02-06T20:23:41.720Z,102412.47
2023-02-06T20:26:44.422Z,102393.06
2023-02-06T20:29:46.688Z,102425.56
2023-02-06T20:32:48.927Z,102412.41
2023-02-06T20:35:51.080Z,102416.22
2023-02-06T20:38:55.562Z,102421.22
2023-02-06T20:41:57.761Z,102424.72
2023-02-06T20:44:59.937Z,102427.31
2023-02-06T20:48:02.184Z,102423.09
2023-02-06T20:51:05.482Z,102425.00
2023-02-06T20:54:07.641Z,102427.16
2023-02-06T20:57:09.866Z,102428.25
2023-02-06T21:00:13.144Z,102432.53
2023-02-06T21:03:15.479Z,102421.41
2023-02-06T21:06:18.108Z,102444.91
2023-02-06T21:09:20.280Z,102449.53
2023-02-06T21:12:22.413Z,102450.03
2023-02-06T21:15:24.762Z,102454.03
2023-02-06T21:18:29.404Z,102461.06
2023-02-06T21:21:32.208Z,102464.75
2023-02-06T21:24:34.328Z,102458.19
2023-02-06T21:27:37.604Z,102461.31
2023-02-06T21:30:40.168Z,102462.41
2023-02-06T21:33:43.080Z,102448.97
2023-02-06T21:36:45.623Z,102452.91
2023-02-06T21:39:48.224Z,102427.91
2023-02-06T21:42:50.475Z,102442.56
2023-02-06T21:45:52.661Z,102433.25
2023-02-06T21:48:55.040Z,102434.44
2023-02-06T21:52:00.569Z,102446.63
2023-02-06T21:55:02.795Z,102451.59
2023-02-06T21:58:04.938Z,102442.53
2023-02-06T22:01:08.904Z,102451.22
2023-02-06T22:04:11.614Z,102464.78
2023-02-06T22:07:13.820Z,102469.13
2023-02-06T22:10:16.086Z,102461.34
2023-02-06T22:13:18.342Z,102472.22
2023-02-06T22:16:22.238Z,102478.81
2023-02-06T22:19:24.493Z,102469.53
2023-02-06T22:22:26.719Z,102479.84
2023-02-06T22:25:28.860Z,102480.69
2023-02-06T22:28:31.078Z,102462.94
2023-02-06T22:31:35.245Z,102474.50
2023-02-06T22:34:39.592Z,102487.25
2023-02-06T22:37:44.442Z,102485.25
2023-02-06T22:40:46.788Z,102454.28
2023-02-06T22:43:49.983Z,102464.72
2023-02-06T22:46:53.159Z,102474.66
2023-02-06T22:49:55.349Z,102476.78
2023-02-06T22:53:16.075Z,102461.06
2023-02-06T22:56:31.667Z,102476.34
2023-02-06T22:59:33.929Z,102475.03
2023-02-06T23:02:36.202Z,102473.50
2023-02-06T23:05:38.658Z,102478.78
2023-02-06T23:08:42.216Z,102492.47
2023-02-06T23:11:45.161Z,102475.94
2023-02-06T23:14:50.472Z,102473.69
2023-02-06T23:17:52.839Z,102490.00
2023-02-06T23:20:59.740Z,102482.19
2023-02-06T23:24:02.034Z,102470.81
2023-02-06T23:27:04.220Z,102479.66
2023-02-06T23:30:06.806Z,102485.78
2023-02-06T23:33:09.031Z,102482.19
2023-02-06T23:36:16.666Z,102496.13
2023-02-06T23:39:18.996Z,102491.31
2023-02-06T23:42:21.128Z,102491.31
2023-02-06T23:45:23.267Z,102477.88
2023-02-06T23:48:25.491Z,102476.44
2023-02-06T23:51:27.860Z,102484.94
2023-02-06T23:54:30.052Z,102485.53
2023-02-06T23:57:35.154Z,102490.44
